Time;durP1;ratioP1;P1;durP2;ratioP2;P2;SDS_P1;SDS_P2;PMS_P1;PMS_P2;Temp;Humidity;BMP_temperature;BMP_pressure;BME280_temperature;BME280_humidity;BME280_pressure;Samples;Min_cycle;Max_cycle;Signal;HPM_P1;HPM_P2
2022/03/13 00:00:47;;;;;;;34.87;22.60;;;;;;;10.06;36.94;97359.78;5053781;28;20421;-68
2022/03/13 00:03:14;;;;;;;36.30;22.67;;;;;;;10.05;37.00;97358.13;5054285;28;20516;-67
2022/03/13 00:05:41;;;;;;;37.80;24.27;;;;;;;10.01;37.01;97362.03;5053876;28;20426;-67
2022/03/13 00:08:23;;;;;;;36.20;23.50;;;;;;;9.97;36.84;97358.03;5053398;28;20512;-68
2022/03/13 00:10:59;;;;;;;34.63;22.50;;;;;;;9.87;37.65;97358.06;5047525;28;20428;-67
2022/03/13 00:13:33;;;;;;;34.83;22.13;;;;;;;9.81;37.44;97366.53;5053901;28;20502;-68
2022/03/13 00:16:09;;;;;;;33.50;23.70;;;;;;;9.77;37.49;97363.34;5048683;28;20485;-68
2022/03/13 00:18:41;;;;;;;38.47;23.47;;;;;;;9.74;37.26;97365.44;5044291;28;20560;-68
2022/03/13 00:21:08;;;;;;;36.43;23.47;;;;;;;9.68;37.42;97372.91;5054354;28;20410;-67
2022/03/13 00:23:34;;;;;;;34.37;22.73;;;;;;;9.64;37.39;97365.47;5045914;28;20851;-68
2022/03/13 00:26:01;;;;;;;40.93;23.23;;;;;;;9.66;37.20;97361.75;5053679;28;20455;-68
2022/03/13 00:28:27;;;;;;;35.20;22.80;;;;;;;9.55;37.92;97356.69;5053196;28;20927;-66
2022/03/13 00:30:53;;;;;;;36.30;24.07;;;;;;;9.49;38.14;97357.22;5053796;28;20471;-67
2022/03/13 00:33:20;;;;;;;33.70;21.77;;;;;;;9.50;38.16;97361.50;5053274;28;20430;-68
2022/03/13 00:35:46;;;;;;;34.80;22.40;;;;;;;9.53;37.86;97359.44;5052087;28;20187;-68
2022/03/13 00:38:11;;;;;;;37.80;23.47;;;;;;;9.51;38.27;97356.13;5053013;28;20474;-67
2022/03/13 00:40:37;;;;;;;35.53;23.67;;;;;;;9.48;38.27;97355.59;5051829;28;20555;-67
2022/03/13 00:43:03;;;;;;;33.10;22.67;;;;;;;9.42;37.94;97358.78;5053593;28;20199;-68
2022/03/13 00:45:29;;;;;;;38.73;22.77;;;;;;;9.34;38.34;97359.47;5052334;28;20179;-68
2022/03/13 00:47:56;;;;;;;34.87;21.50;;;;;;;9.33;38.05;97361.25;5052935;28;20759;-68
2022/03/13 00:50:22;;;;;;;33.93;21.27;;;;;;;9.41;37.76;97357.13;5053126;28;20430;-67
2022/03/13 00:52:48;;;;;;;38.03;23.17;;;;;;;9.39;37.65;97362.47;5053162;28;20533;-68
2022/03/13 00:55:13;;;;;;;33.80;21.90;;;;;;;9.38;38.30;97360.84;5052459;28;20489;-68
2022/03/13 00:57:39;;;;;;;32.57;21.90;;;;;;;9.46;38.02;97367.97;5053298;28;20198;-68
2022/03/13 01:00:06;;;;;;;36.87;22.10;;;;;;;9.42;37.79;97362.22;5051996;28;20170;-68
2022/03/13 01:02:32;;;;;;;34.90;21.87;;;;;;;9.37;37.90;97369.66;5052696;28;20738;-68
2022/03/13 01:04:57;;;;;;;32.13;20.53;;;;;;;9.32;38.20;97372.72;5052441;28;20417;-68
2022/03/13 01:07:23;;;;;;;33.07;22.00;;;;;;;9.29;37.82;97362.53;5052969;28;20421;-68
2022/03/13 01:09:48;;;;;;;35.67;22.90;;;;;;;9.30;38.10;97358.94;5053162;28;20203;-68
2022/03/13 01:12:14;;;;;;;32.73;22.30;;;;;;;9.13;37.92;97362.25;5052477;28;20214;-68
2022/03/13 01:14:39;;;;;;;38.17;22.30;;;;;;;9.19;37.71;97356.47;5054028;28;20610;-67
2022/03/13 01:17:07;;;;;;;40.63;21.80;;;;;;;9.17;38.26;97347.94;5053859;28;20211;-67
2022/03/13 01:19:33;;;;;;;36.93;22.17;;;;;;;9.09;37.57;97350.41;5045004;28;20271;-66
2022/03/13 01:21:59;;;;;;;31.90;21.03;;;;;;;9.07;38.38;97353.19;5053838;28;20864;-67
2022/03/13 01:24:32;;;;;;;39.30;21.33;;;;;;;9.11;38.29;97349.34;5053395;28;20185;-69
2022/03/13 01:27:01;;;;;;;36.70;22.77;;;;;;;9.14;38.00;97348.22;5053227;28;20474;-68
2022/03/13 01:29:28;;;;;;;32.83;21.47;;;;;;;9.13;38.45;97343.97;5052156;28;20461;-68
2022/03/13 01:31:54;;;;;;;33.17;21.53;;;;;;;9.03;37.92;97342.19;5050809;28;20532;-68
2022/03/13 01:34:44;;;;;;;34.50;21.97;;;;;;;8.98;37.99;97338.34;5052568;28;20410;-68
2022/03/13 01:37:15;;;;;;;30.27;20.90;;;;;;;8.94;38.58;97340.41;5048259;28;20670;-67
2022/03/13 01:39:42;;;;;;;32.87;21.33;;;;;;;8.95;38.55;97334.19;5052778;28;20418;-67
2022/03/13 01:42:07;;;;;;;35.00;22.20;;;;;;;8.93;38.55;97328.31;5052095;28;20441;-67
2022/03/13 01:44:33;;;;;;;34.37;21.50;;;;;;;8.92;38.45;97326.66;5051307;28;20804;-68
2022/03/13 01:47:01;;;;;;;33.60;20.67;;;;;;;8.96;38.53;97324.56;5051598;28;20183;-68
2022/03/13 01:49:28;;;;;;;34.63;20.53;;;;;;;8.95;37.62;97331.56;5051905;28;20244;-68
2022/03/13 01:51:53;;;;;;;30.53;19.13;;;;;;;8.87;37.75;97323.63;5051932;28;20445;-68
2022/03/13 01:54:19;;;;;;;32.23;20.23;;;;;;;8.83;38.00;97323.06;5052081;28;20417;-67
2022/03/13 01:56:45;;;;;;;31.10;19.97;;;;;;;8.83;37.78;97336.13;5050816;28;20213;-68
2022/03/13 01:59:13;;;;;;;26.53;18.33;;;;;;;8.84;37.75;97332.56;5051572;28;20421;-68
2022/03/13 02:01:39;;;;;;;32.63;19.53;;;;;;;8.88;37.13;97327.88;5050598;28;20179;-67
2022/03/13 02:04:05;;;;;;;27.83;17.90;;;;;;;8.92;37.66;97329.25;5051893;28;20417;-68
2022/03/13 02:06:30;;;;;;;29.53;19.00;;;;;;;8.86;36.99;97327.19;5049508;28;20183;-67
2022/03/13 02:08:56;;;;;;;29.70;16.97;;;;;;;8.83;37.19;97325.69;5051101;28;20186;-68
2022/03/13 02:11:36;;;;;;;28.60;18.37;;;;;;;8.81;37.62;97329.41;5051531;28;20225;-69
2022/03/13 02:14:03;;;;;;;33.47;19.20;;;;;;;8.82;37.36;97326.66;5051834;28;20269;-68
2022/03/13 02:16:29;;;;;;;44.30;18.57;;;;;;;8.75;37.27;97320.34;5050690;28;20893;-67
2022/03/13 02:18:55;;;;;;;30.00;17.90;;;;;;;8.69;37.38;97323.47;5051583;28;20425;-69
2022/03/13 02:21:25;;;;;;;28.90;17.30;;;;;;;8.68;37.14;97316.59;5051349;28;20520;-68
2022/03/13 02:23:50;;;;;;;33.40;18.63;;;;;;;8.62;36.83;97317.97;5051100;28;20438;-68
2022/03/13 02:26:15;;;;;;;27.17;17.50;;;;;;;8.60;37.37;97319.91;5051273;28;20499;-68
2022/03/13 02:28:50;;;;;;;27.93;17.93;;;;;;;8.58;37.59;97321.81;5051558;28;20175;-67
2022/03/13 02:31:19;;;;;;;27.50;18.47;;;;;;;8.62;38.09;97323.22;5051080;28;20178;-68
2022/03/13 02:33:45;;;;;;;33.90;19.57;;;;;;;8.58;37.40;97320.03;5051193;28;20445;-68
2022/03/13 02:36:38;;;;;;;29.70;18.53;;;;;;;8.52;37.82;97322.38;5050600;28;20437;-68
2022/03/13 02:39:05;;;;;;;27.37;18.87;;;;;;;8.49;38.09;97312.19;5050988;28;20183;-68
2022/03/13 02:41:31;;;;;;;29.70;18.70;;;;;;;8.43;38.51;97311.75;5050582;28;20834;-67
2022/03/13 02:43:57;;;;;;;31.70;18.47;;;;;;;8.50;38.81;97313.84;5048790;28;20417;-67
2022/03/13 02:46:27;;;;;;;28.63;16.70;;;;;;;8.48;37.82;97315.75;5051243;28;20425;-67
2022/03/13 02:48:53;;;;;;;27.67;17.50;;;;;;;8.35;37.85;97316.81;5056704;28;20432;-68
2022/03/13 02:51:18;;;;;;;29.87;18.00;;;;;;;8.38;37.90;97319.16;5053194;28;20418;-68
2022/03/13 02:53:44;;;;;;;31.60;18.90;;;;;;;8.38;38.11;97310.53;5051402;28;20280;-68
2022/03/13 02:56:10;;;;;;;30.00;18.13;;;;;;;8.42;37.63;97311.88;5050535;28;20277;-68
2022/03/13 02:58:36;;;;;;;29.53;17.23;;;;;;;8.43;37.16;97308.31;5050660;28;20673;-68
2022/03/13 03:01:02;;;;;;;27.00;17.33;;;;;;;8.42;37.40;97307.50;5058947;28;20421;-68
2022/03/13 03:03:27;;;;;;;29.93;18.13;;;;;;;8.43;37.63;97317.00;5051618;28;20288;-68
2022/03/13 03:05:53;;;;;;;27.70;16.60;;;;;;;8.41;37.49;97308.47;5051455;28;20425;-68
2022/03/13 03:08:19;;;;;;;27.30;17.77;;;;;;;8.39;37.42;97307.75;5051299;28;20654;-67
2022/03/13 03:10:44;;;;;;;30.30;17.83;;;;;;;8.44;36.77;97321.22;5052636;28;20195;-67
2022/03/13 03:13:13;;;;;;;31.50;16.33;;;;;;;8.44;37.14;97313.38;5061563;28;20440;-68
2022/03/13 03:15:40;;;;;;;26.37;16.37;;;;;;;8.42;37.61;97312.72;5052106;28;20584;-68
2022/03/13 03:18:07;;;;;;;27.77;17.67;;;;;;;8.37;37.49;97317.50;5052798;28;20450;-68
2022/03/13 03:20:34;;;;;;;27.90;17.23;;;;;;;8.40;36.85;97319.03;5044654;28;20445;-68
2022/03/13 03:23:00;;;;;;;29.77;16.97;;;;;;;8.40;36.25;97317.25;5053282;28;20440;-68
2022/03/13 03:25:27;;;;;;;28.43;17.57;;;;;;;8.45;36.40;97320.25;5070168;28;20487;-67
2022/03/13 03:27:54;;;;;;;25.00;16.90;;;;;;;8.36;37.41;97317.66;5064335;28;20587;-67
2022/03/13 03:30:24;;;;;;;28.67;18.33;;;;;;;8.37;36.78;97330.56;5059877;28;20426;-67
2022/03/13 03:32:50;;;;;;;27.63;17.57;;;;;;;8.33;35.77;97323.97;5053355;28;20483;-68
2022/03/13 03:35:19;;;;;;;29.60;16.53;;;;;;;8.39;36.51;97326.03;5056009;28;20429;-68
2022/03/13 03:37:48;;;;;;;28.97;18.20;;;;;;;8.40;36.13;97325.09;5059364;28;20453;-66
2022/03/13 03:40:14;;;;;;;28.53;17.70;;;;;;;8.40;36.24;97334.69;5053262;28;21235;-68
2022/03/13 03:42:41;;;;;;;24.27;17.37;;;;;;;8.45;36.01;97328.09;5050871;28;20544;-66
2022/03/13 03:45:07;;;;;;;28.80;17.10;;;;;;;8.55;35.61;97316.88;5050366;28;20198;-69
2022/03/13 03:47:33;;;;;;;26.97;16.17;;;;;;;8.58;36.31;97311.38;5042393;28;20421;-68
2022/03/13 03:49:58;;;;;;;29.73;17.83;;;;;;;8.55;36.92;97317.69;5050527;28;20763;-68
2022/03/13 03:52:24;;;;;;;27.60;17.17;;;;;;;8.53;37.02;97308.34;5049296;28;20273;-67
2022/03/13 03:54:49;;;;;;;31.13;17.73;;;;;;;8.50;37.04;97324.28;5056485;28;20187;-68
2022/03/13 03:57:15;;;;;;;29.30;17.67;;;;;;;8.48;36.61;97313.16;5061449;28;20218;-67
2022/03/13 03:59:40;;;;;;;29.03;16.43;;;;;;;8.37;36.98;97320.13;5050847;28;20179;-67
2022/03/13 04:02:06;;;;;;;29.00;17.13;;;;;;;8.33;37.41;97316.13;5057226;28;20255;-68
2022/03/13 04:04:31;;;;;;;31.47;18.27;;;;;;;8.29;37.66;97312.97;5049922;28;20634;-68
2022/03/13 04:06:56;;;;;;;43.97;18.83;;;;;;;8.26;38.00;97312.41;5050317;28;20229;-68
2022/03/13 04:09:22;;;;;;;29.00;18.33;;;;;;;8.19;37.70;97306.91;5049316;28;20214;-68
2022/03/13 04:11:47;;;;;;;32.13;17.93;;;;;;;8.11;38.20;97304.97;5050521;28;20182;-68
2022/03/13 04:14:14;;;;;;;26.47;17.37;;;;;;;8.05;38.10;97310.75;5049955;28;20190;-68
2022/03/13 04:16:41;;;;;;;28.23;18.57;;;;;;;7.97;38.62;97315.78;5050190;28;20183;-68
2022/03/13 04:19:08;;;;;;;27.87;17.40;;;;;;;7.97;38.13;97318.38;5050408;28;20843;-67
2022/03/13 04:21:34;;;;;;;27.67;18.50;;;;;;;7.95;38.81;97315.09;5044216;28;20457;-67
2022/03/13 04:24:00;;;;;;;28.73;17.80;;;;;;;7.96;38.16;97306.28;5053853;28;20418;-68
2022/03/13 04:26:25;;;;;;;27.27;17.17;;;;;;;7.89;38.07;97313.03;5051871;28;21011;-68
2022/03/13 04:28:51;;;;;;;29.17;17.13;;;;;;;7.89;38.40;97310.41;5061902;28;20179;-68
2022/03/13 04:31:17;;;;;;;33.87;17.53;;;;;;;7.90;38.02;97304.22;5053446;28;20262;-68
2022/03/13 04:33:42;;;;;;;26.23;16.93;;;;;;;7.70;38.73;97311.97;5049523;28;20198;-68
2022/03/13 04:36:14;;;;;;;27.70;16.77;;;;;;;7.71;38.88;97321.47;5047311;28;20415;-68
2022/03/13 04:38:41;;;;;;;29.40;17.13;;;;;;;7.83;38.55;97309.97;5049375;28;20554;-68
2022/03/13 04:41:06;;;;;;;26.87;17.20;;;;;;;7.96;38.83;97304.53;5065556;28;20832;-68
2022/03/13 04:43:32;;;;;;;27.47;18.10;;;;;;;8.05;38.13;97310.75;5052981;28;20446;-68
2022/03/13 04:45:57;;;;;;;27.87;17.00;;;;;;;8.06;38.03;97315.00;5052801;28;20237;-68
2022/03/13 04:48:23;;;;;;;29.73;18.43;;;;;;;8.10;37.74;97308.53;5036051;28;20278;-68
2022/03/13 04:50:48;;;;;;;32.57;18.80;;;;;;;8.12;38.73;97311.84;5061959;28;20191;-67
2022/03/13 04:53:14;;;;;;;33.70;18.40;;;;;;;8.22;38.17;97311.03;5053617;28;20203;-68
2022/03/13 04:55:40;;;;;;;30.33;18.80;;;;;;;8.07;38.40;97316.63;5058003;28;20716;-68
2022/03/13 04:58:06;;;;;;;32.00;19.30;;;;;;;8.11;38.78;97309.38;5053338;28;20215;-68
2022/03/13 05:00:31;;;;;;;32.67;18.87;;;;;;;8.15;38.72;97321.19;5060575;28;20179;-69
2022/03/13 05:02:58;;;;;;;34.57;19.23;;;;;;;8.13;38.45;97308.28;5052184;28;20932;-68
2022/03/13 05:05:23;;;;;;;29.47;18.13;;;;;;;8.08;39.43;97317.47;5046968;28;20552;-68
2022/03/13 05:07:49;;;;;;;33.27;18.90;;;;;;;8.14;39.02;97320.38;5060210;28;20410;-68
2022/03/13 05:10:18;;;;;;;26.23;18.00;;;;;;;8.23;39.52;97315.28;5052322;28;20639;-67
2022/03/13 05:12:44;;;;;;;31.77;19.63;;;;;;;8.27;38.82;97325.31;5052249;28;20228;-68
2022/03/13 05:15:09;;;;;;;27.67;18.70;;;;;;;8.26;39.31;97323.66;5055172;28;20428;-67
2022/03/13 05:17:35;;;;;;;29.00;18.60;;;;;;;8.25;38.91;97324.63;5052541;28;20210;-67
2022/03/13 05:20:00;;;;;;;33.27;20.40;;;;;;;8.24;39.20;97319.56;5058819;28;20183;-68
2022/03/13 05:22:26;;;;;;;33.17;19.43;;;;;;;8.23;39.10;97321.34;5054782;28;20226;-67
2022/03/13 05:24:52;;;;;;;30.30;18.47;;;;;;;8.18;38.98;97325.31;5057885;28;20179;-67
2022/03/13 05:27:17;;;;;;;32.50;19.30;;;;;;;8.08;39.37;97326.13;5044043;28;20654;-68
2022/03/13 05:29:42;;;;;;;34.93;18.67;;;;;;;7.94;39.64;97335.16;5052195;28;20197;-68
2022/03/13 05:32:08;;;;;;;35.30;19.60;;;;;;;7.79;39.58;97337.31;5051762;28;20203;-68
2022/03/13 05:34:34;;;;;;;28.80;18.53;;;;;;;7.75;39.77;97335.91;5051977;28;20598;-68
2022/03/13 05:36:59;;;;;;;40.00;18.80;;;;;;;7.73;39.85;97343.03;5044173;28;20206;-67
2022/03/13 05:39:25;;;;;;;29.53;19.10;;;;;;;7.69;39.76;97341.63;5062242;28;20225;-68
2022/03/13 05:41:50;;;;;;;32.93;19.80;;;;;;;7.71;40.06;97344.13;5066030;28;20237;-68
2022/03/13 05:44:17;;;;;;;38.20;19.60;;;;;;;7.77;40.05;97339.22;5052221;28;20237;-68
2022/03/13 05:46:42;;;;;;;26.93;17.70;;;;;;;7.88;39.93;97345.28;5059415;28;20186;-66
2022/03/13 05:49:08;;;;;;;30.93;20.00;;;;;;;7.94;40.45;97336.94;5058963;28;20429;-67
2022/03/13 05:51:36;;;;;;;25.10;17.73;;;;;;;7.96;39.74;97338.47;5052223;28;20202;-66
2022/03/13 05:54:04;;;;;;;29.17;19.30;;;;;;;7.98;40.10;97339.16;5047927;28;20215;-68
2022/03/13 05:56:30;;;;;;;31.87;19.30;;;;;;;8.03;39.99;97343.97;5050672;28;20767;-68
2022/03/13 05:58:55;;;;;;;35.93;18.30;;;;;;;8.10;39.95;97345.09;5052007;28;20444;-68
2022/03/13 06:01:21;;;;;;;28.60;19.03;;;;;;;8.15;39.80;97348.13;5058362;28;20183;-68
2022/03/13 06:03:46;;;;;;;34.67;20.70;;;;;;;8.20;39.69;97346.88;5045477;28;20210;-66
2022/03/13 06:06:13;;;;;;;32.87;19.80;;;;;;;8.14;40.11;97349.09;5054764;28;20563;-67
2022/03/13 06:08:38;;;;;;;32.40;19.77;;;;;;;8.00;40.41;97357.28;5063301;28;20181;-67
2022/03/13 06:11:03;;;;;;;35.87;19.97;;;;;;;8.13;40.42;97360.50;5055476;28;20421;-68
2022/03/13 06:13:29;;;;;;;36.27;19.67;;;;;;;8.38;40.05;97355.72;5061114;28;20198;-68
2022/03/13 06:15:57;;;;;;;30.00;19.90;;;;;;;8.62;39.90;97362.41;5051730;28;20688;-67
2022/03/13 06:18:23;;;;;;;30.90;19.77;;;;;;;8.80;39.35;97357.31;5052646;28;20371;-67
2022/03/13 06:20:49;;;;;;;34.03;19.53;;;;;;;8.99;39.19;97356.47;5063280;28;20421;-69
2022/03/13 06:23:15;;;;;;;31.47;19.40;;;;;;;9.05;38.59;97361.19;5061652;28;20559;-68
2022/03/13 06:25:43;;;;;;;50.53;19.63;;;;;;;9.03;39.53;97362.25;5042966;28;20190;-68
2022/03/13 06:28:09;;;;;;;28.50;19.27;;;;;;;9.11;39.22;97370.25;5054522;28;20809;-67
2022/03/13 06:30:34;;;;;;;32.00;20.07;;;;;;;9.19;39.54;97366.94;5050650;28;20429;-68
2022/03/13 06:33:00;;;;;;;31.90;20.07;;;;;;;9.21;38.92;97365.84;5061601;28;20444;-67
2022/03/13 06:35:25;;;;;;;34.73;20.90;;;;;;;9.34;39.45;97370.75;5052563;28;20273;-68
2022/03/13 06:37:52;;;;;;;31.87;21.57;;;;;;;9.45;39.49;97374.19;5056690;28;20214;-67
2022/03/13 06:40:19;;;;;;;32.80;20.80;;;;;;;9.48;38.62;97371.28;5052175;28;20190;-68
2022/03/13 06:42:46;;;;;;;33.00;19.70;;;;;;;9.53;39.10;97372.50;5053033;28;20461;-67
2022/03/13 06:45:12;;;;;;;32.37;21.03;;;;;;;9.69;38.72;97371.09;5046562;28;21178;-67
2022/03/13 06:47:44;;;;;;;29.53;19.50;;;;;;;9.45;38.79;97382.06;5052679;28;20434;-68
2022/03/13 06:50:10;;;;;;;33.87;21.10;;;;;;;9.58;38.77;97379.94;5056024;28;20981;-67
2022/03/13 06:52:36;;;;;;;34.20;20.63;;;;;;;9.65;38.71;97375.78;5051968;28;20512;-68
2022/03/13 06:55:04;;;;;;;35.60;20.43;;;;;;;10.02;38.19;97384.59;5053422;28;20462;-68
2022/03/13 06:57:29;;;;;;;33.97;20.47;;;;;;;10.14;38.60;97378.22;5042793;28;20684;-67
2022/03/13 06:59:57;;;;;;;29.83;19.83;;;;;;;10.41;37.21;97378.41;5050782;28;20421;-66
2022/03/13 07:02:23;;;;;;;33.67;20.27;;;;;;;10.59;37.31;97387.09;5050750;28;20203;-66
2022/03/13 07:04:49;;;;;;;28.63;19.23;;;;;;;10.75;37.19;97390.84;5050424;28;20952;-67
2022/03/13 07:07:14;;;;;;;33.37;21.03;;;;;;;10.90;36.69;97386.75;5050805;28;20249;-67
2022/03/13 07:09:39;;;;;;;31.87;21.20;;;;;;;11.03;36.65;97388.97;5050565;28;20210;-66
2022/03/13 07:12:11;;;;;;;30.10;21.17;;;;;;;11.07;36.40;97389.53;5050509;28;20222;-66
2022/03/13 07:14:44;;;;;;;34.70;21.60;;;;;;;11.15;36.11;97394.84;5043012;28;20487;-66
2022/03/13 07:17:09;;;;;;;31.20;19.87;;;;;;;11.00;36.29;97397.16;5050088;28;20453;-66
2022/03/13 07:19:35;;;;;;;32.50;19.67;;;;;;;10.93;35.98;97396.09;5047348;28;20430;-68
2022/03/13 07:22:00;;;;;;;36.13;21.67;;;;;;;11.00;36.24;97388.47;5050640;28;20573;-67
2022/03/13 07:24:26;;;;;;;33.30;21.30;;;;;;;10.82;36.10;97401.56;5050193;28;20266;-67
2022/03/13 07:26:51;;;;;;;33.13;21.57;;;;;;;10.88;36.81;97391.31;5048576;28;20178;-67
2022/03/13 07:29:17;;;;;;;31.10;20.27;;;;;;;10.97;35.74;97389.59;5048648;28;20190;-67
2022/03/13 07:31:42;;;;;;;27.97;19.90;;;;;;;10.94;36.32;97395.13;5050619;28;20252;-67
2022/03/13 07:34:08;;;;;;;32.47;21.97;;;;;;;11.03;36.01;97402.09;5059182;28;20182;-67
2022/03/13 07:36:34;;;;;;;33.90;21.77;;;;;;;10.81;35.99;97408.63;5050136;28;20697;-66
2022/03/13 07:39:00;;;;;;;34.20;21.93;;;;;;;10.90;36.14;97405.09;5050321;28;20179;-66
2022/03/13 07:41:26;;;;;;;34.43;21.30;;;;;;;10.71;36.26;97406.06;5050130;28;20426;-66
2022/03/13 07:43:51;;;;;;;37.97;22.10;;;;;;;10.70;36.30;97411.47;5050326;28;20433;-67
2022/03/13 07:46:17;;;;;;;32.03;21.10;;;;;;;10.63;36.26;97415.63;5050288;28;20171;-66
2022/03/13 07:48:44;;;;;;;31.40;21.13;;;;;;;10.67;36.65;97411.75;5050856;28;20175;-67
2022/03/13 07:51:13;;;;;;;29.63;21.23;;;;;;;10.62;36.27;97406.97;5050361;28;20170;-67
2022/03/13 07:53:39;;;;;;;37.57;23.57;;;;;;;10.55;36.43;97406.72;5050085;28;20800;-67
2022/03/13 07:56:04;;;;;;;33.03;21.30;;;;;;;10.65;36.50;97403.22;5051685;28;20512;-67
2022/03/13 07:58:30;;;;;;;34.43;21.90;;;;;;;10.74;36.39;97410.19;5050123;28;20207;-67
2022/03/13 08:00:55;;;;;;;32.73;21.67;;;;;;;10.66;36.44;97397.81;5054170;28;20179;-67
2022/03/13 08:03:24;;;;;;;31.87;21.67;;;;;;;10.77;36.26;97399.41;5054348;28;20272;-67
2022/03/13 08:05:52;;;;;;;35.47;22.50;;;;;;;10.90;36.15;97404.25;5054266;28;20305;-66
2022/03/13 08:08:18;;;;;;;32.93;22.13;;;;;;;10.99;36.02;97405.16;5054206;28;20455;-67
2022/03/13 08:10:43;;;;;;;34.53;21.07;;;;;;;11.07;36.04;97406.06;5054094;28;20516;-68
2022/03/13 08:13:09;;;;;;;34.20;22.23;;;;;;;11.42;35.90;97408.81;5053302;28;20218;-67
2022/03/13 08:15:34;;;;;;;34.97;22.90;;;;;;;11.74;35.31;97407.38;5053155;28;20171;-67
2022/03/13 08:18:00;;;;;;;36.43;21.57;;;;;;;11.98;34.84;97404.13;5052783;28;20566;-68
2022/03/13 08:20:26;;;;;;;35.87;22.33;;;;;;;12.14;34.50;97413.88;5053629;28;20253;-68
2022/03/13 08:22:51;;;;;;;35.00;22.73;;;;;;;12.49;33.51;97413.00;5048883;28;20804;-69
2022/03/13 08:25:19;;;;;;;34.00;21.00;;;;;;;12.68;32.32;97404.03;5048196;28;20175;-68
2022/03/13 08:27:45;;;;;;;31.67;22.27;;;;;;;13.00;33.12;97413.78;5047328;28;20496;-68
2022/03/13 08:30:12;;;;;;;32.10;19.90;;;;;;;13.25;32.27;97416.44;5052419;28;20972;-68
2022/03/13 08:32:38;;;;;;;33.10;22.50;;;;;;;13.41;31.57;97409.56;5051148;28;20519;-67
2022/03/13 08:35:06;;;;;;;32.93;22.77;;;;;;;13.53;31.25;97408.25;5052229;28;20410;-69
2022/03/13 08:37:31;;;;;;;34.40;20.83;;;;;;;13.55;31.68;97405.44;5053210;28;20441;-68
2022/03/13 08:39:57;;;;;;;30.40;21.20;;;;;;;13.84;30.93;97404.91;5049509;28;20518;-69
2022/03/13 08:42:22;;;;;;;32.23;21.00;;;;;;;14.07;30.58;97404.19;5051957;28;20195;-67
2022/03/13 08:44:48;;;;;;;32.27;22.00;;;;;;;14.33;30.61;97405.75;5053351;28;20203;-68
2022/03/13 08:47:13;;;;;;;29.53;21.43;;;;;;;14.66;30.36;97403.78;5051102;28;20221;-68
2022/03/13 08:49:39;;;;;;;31.03;20.30;;;;;;;15.01;29.89;97401.59;5052660;28;20175;-69
2022/03/13 08:52:05;;;;;;;30.97;21.73;;;;;;;15.22;29.37;97404.59;5052494;28;20646;-68
2022/03/13 08:54:30;;;;;;;30.47;20.13;;;;;;;15.45;28.95;97399.28;5052427;28;20646;-68
2022/03/13 08:56:55;;;;;;;30.07;20.50;;;;;;;15.65;29.17;97387.22;5051032;28;20218;-68
2022/03/13 08:59:21;;;;;;;32.67;21.17;;;;;;;15.88;28.46;97393.47;5050786;28;20221;-68
2022/03/13 09:01:48;;;;;;;33.90;22.80;;;;;;;15.95;28.36;97395.19;5052742;28;20259;-68
2022/03/13 09:04:13;;;;;;;29.67;20.80;;;;;;;16.15;28.45;97386.72;5051882;28;20176;-67
2022/03/13 09:06:39;;;;;;;30.57;20.80;;;;;;;16.43;28.28;97388.69;5051333;28;20420;-67
2022/03/13 09:09:06;;;;;;;34.07;21.30;;;;;;;16.52;27.47;97386.75;5051101;28;20175;-67
2022/03/13 09:11:34;;;;;;;30.67;20.50;;;;;;;16.87;28.21;97371.88;5051911;28;20424;-67
2022/03/13 09:13:59;;;;;;;34.30;22.87;;;;;;;17.17;27.36;97373.59;5051710;28;20434;-68
2022/03/13 09:16:26;;;;;;;29.20;20.63;;;;;;;17.41;27.24;97374.19;5033725;28;20483;-67
2022/03/13 09:18:53;;;;;;;34.63;20.20;;;;;;;17.79;27.25;97377.34;5034426;28;20209;-67
2022/03/13 09:21:19;;;;;;;31.77;20.97;;;;;;;17.92;26.24;97381.88;5049225;28;20479;-67
2022/03/13 09:23:44;;;;;;;28.80;21.67;;;;;;;17.89;25.99;97377.00;5042559;28;20449;-67
2022/03/13 09:26:09;;;;;;;29.70;22.10;;;;;;;18.17;26.61;97373.47;5050752;28;20175;-67
2022/03/13 09:28:35;;;;;;;33.07;22.90;;;;;;;18.46;25.94;97366.25;5060979;28;20184;-67
2022/03/13 09:31:01;;;;;;;36.10;21.20;;;;;;;18.71;25.54;97371.81;5050972;28;20275;-66
2022/03/13 09:33:27;;;;;;;38.63;22.10;;;;;;;18.95;25.67;97367.03;5051952;28;20347;-68
2022/03/13 09:35:53;;;;;;;30.40;21.03;;;;;;;19.11;24.68;97373.78;5051980;28;20179;-67
2022/03/13 09:38:18;;;;;;;28.50;20.53;;;;;;;18.98;24.65;97374.56;5034063;28;20514;-67
2022/03/13 09:40:44;;;;;;;28.47;19.90;;;;;;;19.42;25.35;97372.34;5052093;28;20410;-69
2022/03/13 09:43:10;;;;;;;29.97;20.33;;;;;;;19.62;25.14;97364.38;5051946;28;20211;-68
2022/03/13 09:45:35;;;;;;;30.17;21.00;;;;;;;19.84;25.21;97371.28;5051627;28;20182;-69
2022/03/13 09:48:06;;;;;;;28.83;20.60;;;;;;;19.96;24.38;97369.66;5052143;28;20206;-68
2022/03/13 09:50:32;;;;;;;30.77;21.93;;;;;;;19.99;24.25;97369.25;5050373;28;20183;-68
2022/03/13 09:52:57;;;;;;;30.40;21.27;;;;;;;20.25;23.69;97363.00;5050540;28;20501;-68
2022/03/13 09:55:23;;;;;;;30.27;20.73;;;;;;;20.22;23.74;97366.13;5051638;28;20207;-68
2022/03/13 09:57:48;;;;;;;30.43;20.70;;;;;;;20.34;23.36;97365.47;5048094;28;20253;-67
2022/03/13 10:00:17;;;;;;;30.83;21.10;;;;;;;20.59;23.41;97373.50;5051370;28;20183;-67
2022/03/13 10:02:43;;;;;;;27.07;20.97;;;;;;;20.76;22.73;97357.88;5051722;28;20244;-67
2022/03/13 10:05:11;;;;;;;27.90;21.63;;;;;;;21.09;22.97;97358.69;5051141;28;20421;-68
2022/03/13 10:07:56;;;;;;;33.27;21.93;;;;;;;21.04;22.17;97358.56;5052015;28;20417;-68
2022/03/13 10:10:23;;;;;;;38.40;21.50;;;;;;;21.25;22.69;97355.50;5050987;28;20426;-68
2022/03/13 10:12:49;;;;;;;29.27;20.60;;;;;;;21.35;22.30;97356.84;5051561;28;21056;-68
2022/03/13 10:15:14;;;;;;;27.43;21.03;;;;;;;21.45;22.98;97344.69;5051183;28;20521;-68
2022/03/13 10:17:41;;;;;;;27.80;21.23;;;;;;;21.71;21.37;97352.66;5050854;28;20311;-69
2022/03/13 10:20:15;;;;;;;31.37;22.10;;;;;;;21.72;21.52;97338.31;5050679;28;20646;-68
2022/03/13 10:22:46;;;;;;;30.67;21.87;;;;;;;22.14;22.15;97337.63;5044408;28;20445;-68
2022/03/13 10:25:13;;;;;;;28.27;20.60;;;;;;;22.45;21.46;97330.53;5051148;28;20505;-68
2022/03/13 10:27:43;;;;;;;31.00;22.80;;;;;;;22.34;20.75;97332.06;5051492;28;20426;-68
2022/03/13 10:30:09;;;;;;;30.00;22.20;;;;;;;22.18;20.26;97333.50;5050861;28;20421;-68
2022/03/13 10:32:36;;;;;;;29.30;21.23;;;;;;;22.13;20.95;97323.50;5050289;28;20468;-67
2022/03/13 10:35:01;;;;;;;29.07;20.97;;;;;;;22.37;20.92;97324.41;5047148;28;20446;-67
2022/03/13 10:37:36;;;;;;;30.70;22.47;;;;;;;22.56;20.20;97329.75;5050926;28;20496;-68
2022/03/13 10:40:12;;;;;;;30.80;21.20;;;;;;;22.27;19.88;97326.78;5050018;28;20186;-68
2022/03/13 10:42:43;;;;;;;34.63;21.90;;;;;;;22.29;19.75;97321.25;5043742;28;20589;-68
2022/03/13 10:45:15;;;;;;;31.23;21.97;;;;;;;22.35;20.15;97320.34;5050919;28;20509;-68
2022/03/13 10:47:41;;;;;;;28.87;21.47;;;;;;;22.47;20.40;97325.78;5051176;28;20952;-68
2022/03/13 10:50:06;;;;;;;34.20;22.90;;;;;;;22.57;20.29;97317.19;5050814;28;20413;-68
2022/03/13 10:52:36;;;;;;;29.07;21.53;;;;;;;22.78;20.57;97310.53;5050787;28;20256;-68
2022/03/13 10:55:21;;;;;;;33.60;22.00;;;;;;;22.92;19.98;97300.47;5050167;28;20184;-68
2022/03/13 10:57:57;;;;;;;28.40;20.10;;;;;;;22.84;19.92;97306.97;5041114;28;20868;-68
2022/03/13 11:00:23;;;;;;;36.90;22.90;;;;;;;22.80;20.15;97306.63;5050894;28;20418;-68
2022/03/13 11:02:50;;;;;;;34.83;22.90;;;;;;;22.83;20.03;97300.00;5050973;28;20441;-68
2022/03/13 11:05:15;;;;;;;30.07;23.30;;;;;;;23.07;20.14;97311.50;5050310;28;20857;-66
2022/03/13 11:07:41;;;;;;;30.93;22.40;;;;;;;23.15;19.69;97303.19;5050451;28;20456;-67
2022/03/13 11:10:08;;;;;;;37.03;22.63;;;;;;;23.13;19.84;97299.91;5051066;28;20189;-68
2022/03/13 11:12:34;;;;;;;34.17;23.13;;;;;;;23.42;19.63;97299.25;5050531;28;20269;-68
2022/03/13 11:15:01;;;;;;;32.63;23.47;;;;;;;23.72;20.22;97301.00;5049004;28;20418;-68
2022/03/13 11:17:32;;;;;;;28.10;22.17;;;;;;;23.95;19.79;97297.44;5050663;28;20941;-68
2022/03/13 11:19:59;;;;;;;29.17;21.20;;;;;;;24.07;19.29;97305.47;5050627;28;20421;-69